createdAt,value
2023-01-06T00:00:03.586Z,13.04
2023-01-06T00:02:31.167Z,13.30
2023-01-06T00:04:58.934Z,13.20
2023-01-06T00:07:26.493Z,12.67
2023-01-06T00:09:53.998Z,12.94
2023-01-06T00:12:21.495Z,13.00
2023-01-06T00:14:48.988Z,13.22
2023-01-06T00:17:18.043Z,12.96
2023-01-06T00:19:45.506Z,13.09
2023-01-06T00:22:13.052Z,13.06
2023-01-06T00:24:40.575Z,12.96
2023-01-06T00:27:08.094Z,13.32
2023-01-06T00:29:35.606Z,13.33
2023-01-06T00:32:03.197Z,12.96
2023-01-06T00:34:32.008Z,13.19
2023-01-06T00:36:59.475Z,12.85
2023-01-06T00:39:26.999Z,12.71
2023-01-06T00:42:06.838Z,13.01
2023-01-06T00:44:35.254Z,12.96
2023-01-06T00:47:02.919Z,12.61
2023-01-06T00:49:31.826Z,13.18
2023-01-06T00:51:59.277Z,13.39
2023-01-06T00:54:26.853Z,13.09
2023-01-06T00:56:54.769Z,13.12
2023-01-06T00:59:22.712Z,13.48
2023-01-06T01:01:52.049Z,12.74
2023-01-06T01:04:19.887Z,13.02
2023-01-06T01:06:48.931Z,13.11
2023-01-06T01:09:17.032Z,12.85
2023-01-06T01:12:02.481Z,12.70
2023-01-06T01:14:30.030Z,12.96
2023-01-06T01:16:57.642Z,12.41
2023-01-06T01:19:25.278Z,13.10
2023-01-06T01:21:54.170Z,12.83
2023-01-06T01:24:21.812Z,12.58
2023-01-06T01:26:49.296Z,12.93
2023-01-06T01:29:17.248Z,12.95
2023-01-06T01:31:44.882Z,12.86
2023-01-06T01:34:13.050Z,13.16
2023-01-06T01:36:40.857Z,13.04
2023-01-06T01:39:09.782Z,12.78
2023-01-06T01:41:37.389Z,12.52
2023-01-06T01:44:25.038Z,12.62
2023-01-06T01:46:52.513Z,12.97
2023-01-06T01:49:20.634Z,13.25
2023-01-06T01:51:49.039Z,12.98
2023-01-06T01:54:20.108Z,12.51
2023-01-06T01:56:48.714Z,12.99
2023-01-06T01:59:19.386Z,12.41
2023-01-06T02:01:47.021Z,12.85
2023-01-06T02:04:14.617Z,12.69
2023-01-06T02:06:42.325Z,12.72
2023-01-06T02:09:11.336Z,12.29
2023-01-06T02:11:40.321Z,12.36
2023-01-06T02:14:09.827Z,12.15
2023-01-06T02:16:39.622Z,12.19
2023-01-06T02:19:08.967Z,12.75
2023-01-06T02:21:41.769Z,12.74
2023-01-06T02:24:27.231Z,13.10
2023-01-06T02:27:08.246Z,12.73
2023-01-06T02:29:42.133Z,12.46
2023-01-06T02:32:16.677Z,11.69
2023-01-06T02:34:46.193Z,12.37
2023-01-06T02:37:16.528Z,12.75
2023-01-06T02:39:44.893Z,12.37
2023-01-06T02:42:15.328Z,12.48
2023-01-06T02:44:45.714Z,12.15
2023-01-06T02:47:14.483Z,12.78
2023-01-06T02:49:44.799Z,12.36
2023-01-06T02:52:15.122Z,12.89
2023-01-06T02:54:43.482Z,12.74
2023-01-06T02:57:13.693Z,12.53
2023-01-06T02:59:42.428Z,12.50
2023-01-06T03:02:10.428Z,12.21
2023-01-06T03:04:38.933Z,12.87
2023-01-06T03:07:07.807Z,12.24
2023-01-06T03:09:36.468Z,12.34
2023-01-06T03:12:07.511Z,12.65
2023-01-06T03:14:36.338Z,12.64
2023-01-06T03:17:03.941Z,12.92
2023-01-06T03:19:31.479Z,13.11
2023-01-06T03:21:58.982Z,12.84
2023-01-06T03:24:27.878Z,12.98
2023-01-06T03:26:55.455Z,12.21
2023-01-06T03:29:22.943Z,12.60
2023-01-06T03:31:53.755Z,12.76
2023-01-06T03:34:24.099Z,12.56
2023-01-06T03:36:53.564Z,12.87
2023-01-06T03:39:23.507Z,12.69
2023-01-06T03:42:24.543Z,12.75
2023-01-06T03:45:00.314Z,12.43
2023-01-06T03:47:29.149Z,13.09
2023-01-06T03:49:57.174Z,13.13
2023-01-06T03:52:26.470Z,13.13
2023-01-06T03:54:55.506Z,13.00
2023-01-06T03:57:24.953Z,13.06
2023-01-06T03:59:53.860Z,13.03
2023-01-06T04:02:21.601Z,13.16
2023-01-06T04:05:01.325Z,12.96
2023-01-06T04:07:28.809Z,12.85
2023-01-06T04:09:56.320Z,12.99
2023-01-06T04:12:40.017Z,12.69
2023-01-06T04:15:08.594Z,12.68
2023-01-06T04:17:36.249Z,13.04
2023-01-06T04:20:04.085Z,12.68
2023-01-06T04:22:31.594Z,12.98
2023-01-06T04:24:59.084Z,12.97
2023-01-06T04:27:27.953Z,12.93
2023-01-06T04:29:55.428Z,12.67
2023-01-06T04:32:22.963Z,12.57
2023-01-06T04:34:50.482Z,12.55
2023-01-06T04:37:19.501Z,12.84
2023-01-06T04:39:48.063Z,12.16
2023-01-06T04:42:15.558Z,12.65
2023-01-06T04:44:44.370Z,12.50
2023-01-06T04:47:12.146Z,12.43
2023-01-06T04:49:39.608Z,12.34
2023-01-06T04:52:08.812Z,12.48
2023-01-06T04:54:36.411Z,12.66
2023-01-06T04:57:04.044Z,12.92
2023-01-06T04:59:31.519Z,12.61
2023-01-06T05:02:00.452Z,12.88
2023-01-06T05:04:30.193Z,12.70
2023-01-06T05:07:01.614Z,12.78
2023-01-06T05:09:29.106Z,12.38
2023-01-06T05:11:56.605Z,12.65
2023-01-06T05:14:24.136Z,12.47
2023-01-06T05:16:51.621Z,12.78
2023-01-06T05:19:20.516Z,12.26
2023-01-06T05:21:48.034Z,12.18
2023-01-06T05:24:15.643Z,12.27
2023-01-06T05:26:43.141Z,12.98
2023-01-06T05:29:10.667Z,12.75
2023-01-06T05:31:38.234Z,12.77
2023-01-06T05:34:06.042Z,12.94
2023-01-06T05:36:34.902Z,12.62
2023-01-06T05:39:02.450Z,12.13
2023-01-06T05:41:29.945Z,12.11
2023-01-06T05:43:57.903Z,12.61
2023-01-06T05:46:25.399Z,12.93
2023-01-06T05:48:52.887Z,13.12
2023-01-06T05:51:20.350Z,12.53
2023-01-06T05:53:49.281Z,12.37
2023-01-06T05:56:17.316Z,12.88
2023-01-06T05:58:45.325Z,12.75
2023-01-06T06:01:16.781Z,12.61
2023-01-06T06:03:44.465Z,12.98
2023-01-06T06:06:12.258Z,12.54
2023-01-06T06:08:39.803Z,12.68
2023-01-06T06:11:09.148Z,12.69
2023-01-06T06:13:36.685Z,12.88
2023-01-06T06:16:04.957Z,12.57
2023-01-06T06:18:32.942Z,12.52
2023-01-06T06:21:03.542Z,12.67
2023-01-06T06:23:31.152Z,12.39
2023-01-06T06:25:58.810Z,12.93
2023-01-06T06:28:27.784Z,12.65
2023-01-06T06:30:55.733Z,12.28
2023-01-06T06:33:23.339Z,12.70
2023-01-06T06:35:56.865Z,12.87
2023-01-06T06:38:24.426Z,12.26
2023-01-06T06:40:51.966Z,11.76
2023-01-06T06:43:19.442Z,12.32
2023-01-06T06:45:48.601Z,12.34
2023-01-06T06:48:16.111Z,12.35
2023-01-06T06:50:43.627Z,12.33
2023-01-06T06:53:11.186Z,12.00
2023-01-06T06:55:38.761Z,12.53
2023-01-06T06:58:06.395Z,12.66
2023-01-06T07:00:33.878Z,12.23
2023-01-06T07:03:02.699Z,12.57
2023-01-06T07:05:30.160Z,11.78
2023-01-06T07:07:57.678Z,12.04
2023-01-06T07:10:25.297Z,12.16
2023-01-06T07:12:52.779Z,12.22
2023-01-06T07:15:20.216Z,11.79
2023-01-06T07:17:47.751Z,11.71
2023-01-06T07:20:16.705Z,11.86
2023-01-06T07:22:44.231Z,11.72
2023-01-06T07:25:11.821Z,12.07
2023-01-06T07:27:39.360Z,11.68
2023-01-06T07:30:07.656Z,12.15
2023-01-06T07:32:35.267Z,11.87
2023-01-06T07:35:02.822Z,11.93
2023-01-06T07:37:31.661Z,12.02
2023-01-06T07:39:59.138Z,12.07
2023-01-06T07:42:26.667Z,11.97
2023-01-06T07:44:54.166Z,12.35
2023-01-06T07:47:21.598Z,11.51
2023-01-06T07:49:49.157Z,11.36
2023-01-06T07:52:16.630Z,11.96
2023-01-06T07:54:45.468Z,12.29
2023-01-06T07:57:13.010Z,11.69
2023-01-06T07:59:40.504Z,11.70
2023-01-06T08:02:08.239Z,12.06
2023-01-06T08:04:35.814Z,12.24
2023-01-06T08:07:03.304Z,12.02
2023-01-06T08:09:30.907Z,11.75
2023-01-06T08:11:59.773Z,11.13
2023-01-06T08:14:27.329Z,11.80
2023-01-06T08:16:54.789Z,12.13
2023-01-06T08:19:22.339Z,11.21
2023-01-06T08:21:49.827Z,11.87
2023-01-06T08:24:17.345Z,11.78
2023-01-06T08:26:44.888Z,11.97
2023-01-06T08:29:13.713Z,12.05
2023-01-06T08:31:41.175Z,12.05
2023-01-06T08:34:08.705Z,12.00
2023-01-06T08:36:36.225Z,11.66
2023-01-06T08:39:03.882Z,12.22
2023-01-06T08:41:31.354Z,11.52
2023-01-06T08:43:58.866Z,11.69
2023-01-06T08:46:27.741Z,11.56
2023-01-06T08:48:56.749Z,11.47
2023-01-06T08:51:24.222Z,11.46
2023-01-06T08:53:51.717Z,11.64
2023-01-06T08:56:19.867Z,11.55
2023-01-06T08:58:49.172Z,11.62
2023-01-06T09:01:17.400Z,11.06
2023-01-06T09:03:46.300Z,11.48
2023-01-06T09:06:14.046Z,11.74
2023-01-06T09:08:41.595Z,11.37
2023-01-06T09:11:09.559Z,11.52
2023-01-06T09:13:37.149Z,11.35
2023-01-06T09:16:06.042Z,10.92
2023-01-06T09:18:33.566Z,11.61
2023-01-06T09:21:02.488Z,11.25
2023-01-06T09:23:29.995Z,11.22
2023-01-06T09:25:58.156Z,10.74
2023-01-06T09:28:25.661Z,11.27
2023-01-06T09:30:53.231Z,11.28
2023-01-06T09:33:20.761Z,11.14
2023-01-06T09:35:48.330Z,11.23
2023-01-06T09:38:17.338Z,11.34
2023-01-06T09:40:48.127Z,11.16
2023-01-06T09:43:17.206Z,10.92
2023-01-06T09:45:45.503Z,11.00
2023-01-06T09:48:14.935Z,11.24
2023-01-06T09:50:42.683Z,10.74
2023-01-06T09:53:12.201Z,11.20
2023-01-06T09:55:41.835Z,11.08
2023-01-06T09:58:10.633Z,10.87
2023-01-06T10:00:39.779Z,11.05
2023-01-06T10:03:10.071Z,11.35
2023-01-06T10:05:39.738Z,11.30
2023-01-06T10:08:09.726Z,10.97
2023-01-06T10:10:39.359Z,11.11
2023-01-06T10:13:22.987Z,11.37
2023-01-06T10:15:52.509Z,11.60
2023-01-06T10:18:23.110Z,11.28
2023-01-06T10:20:53.515Z,11.65
2023-01-06T10:23:25.219Z,11.66
2023-01-06T10:25:54.355Z,11.20
2023-01-06T10:28:29.461Z,11.34
2023-01-06T10:30:57.480Z,11.80
2023-01-06T10:35:54.951Z,11.56
2023-01-06T10:38:22.784Z,11.32
2023-01-06T10:40:50.363Z,11.79
2023-01-06T10:43:22.554Z,12.17
2023-01-06T10:45:51.582Z,11.79
2023-01-06T10:48:19.468Z,11.73
2023-01-06T10:50:46.962Z,11.98
2023-01-06T10:53:14.922Z,11.52
2023-01-06T10:55:43.723Z,11.86
2023-01-06T10:58:15.934Z,11.79
2023-01-06T11:00:56.917Z,12.02
2023-01-06T11:03:33.161Z,11.57
2023-01-06T11:06:03.116Z,11.65
2023-01-06T11:08:30.617Z,11.87
2023-01-06T11:10:58.345Z,11.43
2023-01-06T11:13:27.431Z,11.97
2023-01-06T11:15:56.440Z,12.34
2023-01-06T11:18:25.314Z,11.93
2023-01-06T11:21:03.013Z,11.62
2023-01-06T11:23:30.698Z,11.84
2023-01-06T11:26:02.162Z,11.95
2023-01-06T11:28:30.706Z,12.14
2023-01-06T11:31:01.323Z,11.62
2023-01-06T11:33:29.162Z,11.57
2023-01-06T11:35:56.681Z,11.52
2023-01-06T11:38:24.160Z,11.51
2023-01-06T11:40:52.052Z,11.55
2023-01-06T11:43:21.126Z,11.88
2023-01-06T11:45:49.231Z,11.73
2023-01-06T11:48:18.977Z,11.65
2023-01-06T11:50:53.285Z,11.55
2023-01-06T11:53:21.308Z,12.02
2023-01-06T11:55:58.863Z,11.64
2023-01-06T11:58:29.727Z,11.18
2023-01-06T12:00:57.963Z,11.58
2023-01-06T12:03:31.105Z,11.82
2023-01-06T12:05:59.979Z,11.41
2023-01-06T12:08:29.674Z,11.67
2023-01-06T12:10:58.526Z,11.64
2023-01-06T12:13:26.047Z,11.69
2023-01-06T12:15:56.167Z,11.50
2023-01-06T12:18:24.982Z,11.85
2023-01-06T12:20:53.846Z,12.07
2023-01-06T12:23:21.749Z,11.82
2023-01-06T12:25:49.403Z,11.94
2023-01-06T12:28:17.937Z,11.73
2023-01-06T12:30:47.513Z,11.83
2023-01-06T12:33:15.958Z,11.93
2023-01-06T12:35:45.551Z,12.03
2023-01-06T12:38:17.302Z,12.19
2023-01-06T12:40:45.680Z,11.69
2023-01-06T12:43:15.135Z,11.78
2023-01-06T12:45:49.690Z,11.62
2023-01-06T12:48:22.362Z,11.67
2023-01-06T12:50:50.896Z,11.85
2023-01-06T12:53:21.377Z,12.12
2023-01-06T12:55:50.956Z,11.79
2023-01-06T12:58:19.290Z,11.92
2023-01-06T13:00:48.731Z,12.20
2023-01-06T13:03:25.292Z,11.64
2023-01-06T13:05:56.082Z,11.59
2023-01-06T13:08:27.974Z,11.55
2023-01-06T13:10:57.061Z,11.77
2023-01-06T13:13:43.511Z,11.62
2023-01-06T13:16:14.698Z,11.80
2023-01-06T13:18:42.684Z,11.96
2023-01-06T13:21:10.373Z,11.88
2023-01-06T13:23:41.724Z,11.67
2023-01-06T13:26:12.779Z,11.95
2023-01-06T13:28:41.327Z,12.00
2023-01-06T13:31:26.034Z,11.43
2023-01-06T13:34:04.094Z,11.18
2023-01-06T13:36:50.008Z,11.59
2023-01-06T13:39:19.287Z,11.34
2023-01-06T13:41:47.180Z,11.78
2023-01-06T13:44:15.252Z,11.78
2023-01-06T13:46:42.751Z,12.04
2023-01-06T13:49:11.275Z,11.65
2023-01-06T13:51:39.635Z,11.38
2023-01-06T13:54:07.150Z,12.14
2023-01-06T13:56:37.166Z,11.73
2023-01-06T13:59:18.761Z,11.94
2023-01-06T14:01:46.533Z,11.90
2023-01-06T14:04:32.948Z,11.92
2023-01-06T14:07:00.407Z,12.24
2023-01-06T14:09:27.941Z,12.31
2023-01-06T14:11:56.790Z,12.27
2023-01-06T14:14:25.163Z,12.35
2023-01-06T14:16:53.256Z,12.57
2023-01-06T14:19:22.122Z,11.96
2023-01-06T14:21:50.202Z,12.04
2023-01-06T14:24:21.978Z,12.15
2023-01-06T14:26:54.626Z,12.71
2023-01-06T14:29:40.766Z,12.02
2023-01-06T14:32:10.035Z,12.20
2023-01-06T14:34:38.273Z,11.92
2023-01-06T14:37:05.799Z,12.36
2023-01-06T14:39:33.614Z,12.30
2023-01-06T14:42:01.920Z,11.87
2023-01-06T14:44:31.646Z,12.24
2023-01-06T14:47:00.826Z,12.44
2023-01-06T14:49:31.114Z,12.09
2023-01-06T14:51:58.751Z,11.67
2023-01-06T14:54:26.617Z,12.23
2023-01-06T14:56:54.536Z,12.41
2023-01-06T14:59:22.745Z,12.09
2023-01-06T15:01:56.055Z,11.94
2023-01-06T15:04:30.117Z,11.96
2023-01-06T15:07:02.778Z,11.90
2023-01-06T15:09:30.326Z,11.72
2023-01-06T15:11:57.800Z,11.96
2023-01-06T15:14:32.635Z,11.69
2023-01-06T15:17:01.362Z,11.80
2023-01-06T15:19:28.838Z,11.51
2023-01-06T15:21:57.053Z,11.57
2023-01-06T15:24:26.566Z,11.80
2023-01-06T15:26:55.151Z,11.62
2023-01-06T15:29:23.081Z,11.59
2023-01-06T15:31:50.982Z,11.51
2023-01-06T15:34:19.091Z,11.38
2023-01-06T15:36:46.924Z,11.28
2023-01-06T15:39:15.035Z,11.07
2023-01-06T15:41:43.954Z,10.96
2023-01-06T15:44:24.615Z,10.84
2023-01-06T15:46:52.280Z,10.83
2023-01-06T15:49:22.656Z,10.69
2023-01-06T15:51:55.137Z,10.49
2023-01-06T15:54:22.693Z,10.37
2023-01-06T15:56:51.518Z,10.29
2023-01-06T15:59:19.034Z,10.26
2023-01-06T16:01:49.969Z,10.22
2023-01-06T16:04:17.645Z,10.34
2023-01-06T16:06:45.243Z,10.43
2023-01-06T16:09:26.837Z,10.36
2023-01-06T16:12:08.486Z,10.33
2023-01-06T16:14:36.918Z,10.29
2023-01-06T16:17:06.211Z,10.27
2023-01-06T16:19:33.794Z,10.31
2023-01-06T16:22:01.665Z,10.38
2023-01-06T16:24:30.148Z,10.34
2023-01-06T16:26:58.308Z,10.34
2023-01-06T16:29:29.221Z,10.46
2023-01-06T16:31:57.141Z,10.59
2023-01-06T16:34:28.157Z,10.47
2023-01-06T16:36:56.381Z,10.48
2023-01-06T16:39:23.946Z,10.44
2023-01-06T16:42:38.017Z,10.48
2023-01-06T16:45:09.035Z,10.56
2023-01-06T16:47:36.504Z,10.59
2023-01-06T16:50:07.870Z,10.71
2023-01-06T16:52:35.319Z,10.72
2023-01-06T16:55:02.897Z,10.34
2023-01-06T16:57:30.437Z,10.62
2023-01-06T16:59:57.922Z,10.50
2023-01-06T17:02:26.834Z,10.43
2023-01-06T17:04:54.485Z,10.45
2023-01-06T17:07:23.604Z,10.42
2023-01-06T17:09:52.248Z,10.56
2023-01-06T17:12:35.111Z,10.63
2023-01-06T17:15:02.770Z,10.79
2023-01-06T17:17:31.633Z,10.77
2023-01-06T17:19:59.243Z,10.75
2023-01-06T17:22:27.484Z,10.75
2023-01-06T17:24:55.006Z,10.88
2023-01-06T17:27:23.060Z,10.88
2023-01-06T17:29:50.636Z,10.95
2023-01-06T17:32:19.127Z,10.90
2023-01-06T17:34:47.989Z,10.94
2023-01-06T17:37:16.710Z,10.83
2023-01-06T17:39:44.786Z,10.76
2023-01-06T17:42:25.239Z,10.82
2023-01-06T17:44:53.944Z,10.85
2023-01-06T17:47:28.131Z,10.87
2023-01-06T17:49:57.645Z,10.75
2023-01-06T17:52:25.934Z,10.65
2023-01-06T17:55:12.057Z,10.55
2023-01-06T17:57:40.318Z,10.50
2023-01-06T18:00:16.400Z,10.46
2023-01-06T18:02:44.257Z,10.46
2023-01-06T18:05:34.086Z,10.46
2023-01-06T18:08:02.951Z,10.52
2023-01-06T18:10:30.509Z,10.38
2023-01-06T18:12:58.007Z,10.39
2023-01-06T18:15:29.430Z,10.43
2023-01-06T18:17:57.027Z,10.46
2023-01-06T18:20:25.950Z,10.44
2023-01-06T18:22:53.473Z,10.47
2023-01-06T18:25:27.459Z,10.34
2023-01-06T18:27:55.017Z,10.45
2023-01-06T18:30:23.745Z,10.44
2023-01-06T18:32:51.774Z,10.51
2023-01-06T18:35:21.262Z,10.48
2023-01-06T18:37:50.478Z,10.50
2023-01-06T18:40:18.525Z,10.57
2023-01-06T18:42:46.474Z,10.34
2023-01-06T18:45:19.235Z,10.54
2023-01-06T18:47:50.042Z,10.54
2023-01-06T18:50:24.049Z,10.59
2023-01-06T18:52:53.083Z,10.89
2023-01-06T18:55:24.786Z,10.67
2023-01-06T18:57:56.760Z,10.95
2023-01-06T19:00:38.456Z,10.76
2023-01-06T19:03:13.153Z,10.95
2023-01-06T19:05:40.669Z,11.01
2023-01-06T19:08:12.861Z,10.80
2023-01-06T19:10:40.325Z,10.85
2023-01-06T19:13:10.904Z,10.82
2023-01-06T19:15:38.432Z,10.95
2023-01-06T19:18:06.895Z,11.02
2023-01-06T19:20:37.312Z,11.08
2023-01-06T19:23:07.098Z,11.11
2023-01-06T19:25:36.347Z,10.95
2023-01-06T19:28:04.216Z,10.87
2023-01-06T19:30:36.240Z,10.98
2023-01-06T19:33:22.384Z,10.94
2023-01-06T19:35:49.873Z,10.86
2023-01-06T19:38:23.875Z,10.90
2023-01-06T19:40:52.749Z,11.03
2023-01-06T19:43:20.998Z,10.88
2023-01-06T19:45:48.551Z,10.90
2023-01-06T19:48:17.751Z,10.91
2023-01-06T19:50:45.342Z,11.02
2023-01-06T19:53:19.548Z,10.90
2023-01-06T19:55:47.068Z,11.17
2023-01-06T19:58:16.678Z,11.47
2023-01-06T20:00:47.108Z,11.26
2023-01-06T20:03:20.470Z,11.51
2023-01-06T20:05:47.960Z,11.57
2023-01-06T20:08:15.410Z,11.78
2023-01-06T20:10:42.844Z,12.04
2023-01-06T20:13:10.383Z,12.25
2023-01-06T20:15:39.254Z,12.26
2023-01-06T20:18:06.799Z,12.32
2023-01-06T20:20:34.370Z,12.52
2023-01-06T20:23:01.908Z,12.47
2023-01-06T20:25:29.398Z,12.64
2023-01-06T20:27:56.995Z,12.70
2023-01-06T20:30:24.528Z,12.58
2023-01-06T20:32:53.336Z,12.76
2023-01-06T20:35:21.368Z,12.63
2023-01-06T20:37:48.867Z,12.34
2023-01-06T20:40:18.192Z,12.20
2023-01-06T20:42:45.707Z,12.41
2023-01-06T20:45:13.426Z,12.10
2023-01-06T20:47:41.798Z,12.33
2023-01-06T20:50:13.838Z,12.40
2023-01-06T20:52:41.612Z,11.90
2023-01-06T20:55:09.467Z,12.23
2023-01-06T20:57:36.981Z,12.57
2023-01-06T21:00:04.925Z,12.50
2023-01-06T21:02:32.568Z,12.24
2023-01-06T21:05:00.174Z,12.52
2023-01-06T21:07:29.009Z,12.47
2023-01-06T21:09:56.838Z,12.50
2023-01-06T21:12:24.715Z,12.92
2023-01-06T21:14:52.195Z,12.65
2023-01-06T21:17:19.757Z,12.87
2023-01-06T21:19:48.012Z,13.15
2023-01-06T21:22:15.484Z,12.67
2023-01-06T21:24:44.312Z,12.68
2023-01-06T21:27:11.775Z,12.89
2023-01-06T21:29:39.262Z,12.83
2023-01-06T21:32:06.730Z,13.09
2023-01-06T21:34:34.256Z,12.92
2023-01-06T21:37:01.848Z,12.97
2023-01-06T21:39:29.340Z,13.18
2023-01-06T21:42:15.717Z,12.81
2023-01-06T21:44:43.256Z,13.01
2023-01-06T21:47:11.255Z,13.07
2023-01-06T21:49:38.929Z,12.72
2023-01-06T21:52:06.875Z,12.96
2023-01-06T21:54:34.452Z,13.07
2023-01-06T21:57:03.377Z,13.24
2023-01-06T21:59:30.879Z,13.15
2023-01-06T22:01:58.467Z,13.20
2023-01-06T22:04:26.038Z,12.93
2023-01-06T22:06:53.718Z,12.90
2023-01-06T22:09:22.395Z,12.90
2023-01-06T22:11:49.928Z,12.77
2023-01-06T22:14:18.798Z,12.78
2023-01-06T22:16:46.390Z,13.16
2023-01-06T22:19:14.242Z,13.01
2023-01-06T22:21:41.859Z,12.62
2023-01-06T22:24:09.916Z,12.95
2023-01-06T22:26:37.392Z,13.10
2023-01-06T22:29:04.935Z,13.03
2023-01-06T22:31:33.802Z,13.15
2023-01-06T22:34:01.319Z,13.10
2023-01-06T22:36:28.838Z,13.13
2023-01-06T22:38:56.339Z,12.93
2023-01-06T22:41:23.834Z,13.20
2023-01-06T22:43:51.403Z,13.18
2023-01-06T22:46:18.935Z,13.48
2023-01-06T22:48:47.805Z,13.17
2023-01-06T22:51:15.291Z,13.13
2023-01-06T22:53:42.780Z,12.91
2023-01-06T22:56:11.036Z,13.43
2023-01-06T22:58:39.299Z,13.21
2023-01-06T23:01:07.527Z,13.36
2023-01-06T23:03:35.209Z,13.54
2023-01-06T23:06:04.969Z,13.17
2023-01-06T23:08:33.459Z,13.06
2023-01-06T23:11:01.111Z,13.19
2023-01-06T23:13:28.710Z,13.51
2023-01-06T23:15:59.865Z,13.90
2023-01-06T23:18:27.425Z,13.52
2023-01-06T23:20:58.347Z,12.81
2023-01-06T23:23:27.202Z,13.57
2023-01-06T23:25:54.698Z,13.16
2023-01-06T23:28:22.175Z,13.32
2023-01-06T23:30:49.721Z,13.06
2023-01-06T23:33:17.241Z,13.28
2023-01-06T23:35:44.774Z,13.51
2023-01-06T23:38:12.268Z,13.02
2023-01-06T23:40:41.199Z,13.07
2023-01-06T23:43:08.682Z,13.56
2023-01-06T23:45:36.205Z,13.41
2023-01-06T23:48:03.719Z,13.09
2023-01-06T23:50:31.172Z,13.00
2023-01-06T23:52:58.633Z,13.36
2023-01-06T23:55:26.116Z,13.69
2023-01-06T23:57:54.981Z,13.83
